Historyczne dane pomiarowe

Dodano dane terminowe – wersja testowa.

Dane z okresu 1951-2019

Wersja bazy: 1.34 [2019-03-16, lista zmian], aktualizacja planowana na 2019-04-15

Dane meteo z obszaru Polski uzyskane na podstawie danych udostępnionych przez Instytut Meteorologii i Gospodarki Wodnej – Państwowy Instytut Badawczy.

 

Wybierz Datę:    

       

TemperaturaWilgotnośćWiatrCiśnienieOpadyŚniegCzas trwania zjawisk
 Stacja t tx tn tng RH VA  wxwx mslp ppp RRR   cm mm wxwxwxwxwxwxwx
1961-08-14 13.4 17.8 6.7--- 2.3 0.7---- 0.0------------
1961-08-13 12.4 17.5 11.8--- 8.0 1.0---- 7.4------------
1961-08-12 18.8 24.3 14.4--- 6.3 3.0---- 22.7------------
1961-08-11 24.3 33.9 15.7--- 2.3 2.3---- 0.0------------
1961-08-10 22.9 32.0 15.8--- 1.0 0.7---- 0.0------------
1961-08-09 21.9 30.3 15.5--- 3.7 1.0---- 29.8------------
1961-08-08 20.6 26.2 17.0--- 5.3 1.0---- 0.0------------
1961-08-07 22.2 30.7 14.0--- 3.3 1.0---- 0.0------------
1961-08-06 20.9 30.7 10.0--- 0.3 1.7---- 0.0------------
1961-08-05 17.5 23.7 13.0--- 3.0 0.7---- 0.0------------
1961-08-04 14.9 20.2 9.9--- 4.3 0.7---- 0.0------------
1961-08-03 15.8 22.5 12.7--- 6.3 0.7---- 30.3------------
1961-08-02 18.2 25.2 7.9--- 1.0 1.3---- 0.0------------
1961-08-01 14.6 22.9 6.7--- 2.7 1.3---- 0.0------------
1961-07-31 12.9 17.5 9.6--- 7.0 2.3---- 0.6------------
1961-07-30 10.7 12.6 9.8--- 8.0 1.3---- 23.5------------
1961-07-29 13.2 19.2 12.1--- 8.0 0.0---- 34.4------------
1961-07-28 21.0 28.6 14.7--- 5.0 0.7---- 5.7------------
1961-07-27 20.6 27.1 10.0--- 2.3 1.3---- 0.0------------
1961-07-26 14.8 22.6 8.2--- 3.7 1.7---- 0.0------------
1961-07-25 12.8 16.6 6.6--- 7.0 1.0---- 0.0------------
1961-07-24 14.1 17.6 12.3--- 8.0 1.7---- 0.0------------
1961-07-23 15.1 20.2 9.4--- 5.7 2.0---- 0.0------------
1961-07-22 15.1 19.1 12.0--- 6.0 1.7---- 0.0------------
1961-07-21 15.3 20.0 7.2--- 6.3 2.3---- 0.0------------
1961-07-20 13.0 17.1 8.0--- 8.0 0.7---- 9.2------------
1961-07-19 12.4 18.3 8.4--- 6.7 1.3---- 1.7------------
1961-07-18 14.1 19.7 10.2--- 5.7 1.3---- 0.2------------
1961-07-17 16.0 23.0 12.1--- 5.3 1.7---- 0.0------------
1961-07-16 16.8 22.2 14.0--- 3.7 2.7---- 7.8------------
1961-07-15 17.0 25.0 6.9--- 5.0 1.7---- 2.9------------
1961-07-14 13.4 19.2 10.3--- 5.0 3.0---- 0.0------------
1961-07-13 19.6 27.3 10.7--- 3.3 3.7---- 8.8------------
1961-07-12 20.4 26.9 7.4--- 5.0 2.0---- 0.0------------
1961-07-11 14.7 20.8 8.8--- 2.3 1.0---- 0.0------------
1961-07-10 14.3 19.4 10.5--- 8.0 2.0---- 2.9------------
1961-07-09 16.0 22.7 9.3--- 5.3 3.0---- 0.0------------
1961-07-08 14.3 20.5 7.4--- 3.0 2.3---- 0.0------------
1961-07-07 12.5 17.5 4.4--- 5.7 1.7---- 0.0------------
1961-07-06 11.2 17.6 5.0--- 3.3 2.0---- 0.0------------
1961-07-05 13.3 19.2 11.4--- 7.0 1.7---- 0.6------------
1961-07-04 21.9 31.7 13.3--- 2.7 2.7---- 2.9------------
1961-07-03 20.7 29.0 9.9--- 0.0 1.0---- 0.0------------
1961-07-02 18.7 25.8 10.6--- 0.3 2.0---- 0.0------------
1961-07-01 17.9 25.3 9.9--- 1.0 1.7---- 0.0------------
1961-06-30 17.5 21.5 10.2--- 2.0 1.3---- 0.0------------
1961-06-29 14.6 20.2 6.4--- 4.0 1.0---- 0.0------------
1961-06-28 14.0 19.8 12.5--- 7.3 1.3---- 1.4------------
1961-06-27 21.5 30.8 11.3--- 3.0 1.7---- 10.8------------
1961-06-26 20.8 31.0 12.0--- 1.7 1.7---- 0.0------------
1961-06-25 19.5 28.8 9.2--- 0.7 1.0---- 0.0------------
1961-06-24 18.2 25.6 10.5--- 2.7 2.0---- 0.0------------
1961-06-23 16.8 23.4 13.7--- 4.7 2.3---- 0.0------------
1961-06-22 17.8 25.6 7.2--- 2.3 0.7---- 6.7------------
1961-06-21 16.2 24.4 4.1--- 1.3 1.0---- 0.0------------
1961-06-20 16.0 18.3 14.6--- 4.0 1.0---- 0.0------------
1961-06-19 20.0 28.2 10.8--- 3.3 1.3---- 0.0------------
1961-06-18 17.7 26.6 8.5--- 1.3 2.0---- 0.0------------
1961-06-17 14.3 21.8 6.4--- 1.3 1.3---- 0.0------------
1961-06-16 13.1 19.8 7.6--- 2.7 1.7---- 0.0------------
840.2 ms

 

Źródłem pochodzenia danych jest Instytut Meteorologii i Gospodarki Wodnej – Państwowy Instytut Badawczy. Dane Instytutu Meteorologii i Gospodarki Wodnej – Państwowego Instytutu Badawczego zostały przetworzone.

Dane źródłowe można odnaleźć na stronie https://dane.imgw.pl